sensor_id;sensor_type;location;lat;lon;timestamp;P1;durP1;ratioP1;P2;durP2;ratioP2
12228;SDS011;6177;52.402;9.800;2024-01-11T00:00:36;23.60;;;18.03;;
12228;SDS011;6177;52.402;9.800;2024-01-11T00:03:01;24.23;;;18.57;;
12228;SDS011;6177;52.402;9.800;2024-01-11T00:05:27;25.17;;;20.17;;
12228;SDS011;6177;52.402;9.800;2024-01-11T00:07:52;25.70;;;18.73;;
12228;SDS011;6177;52.402;9.800;2024-01-11T00:10:18;25.70;;;19.67;;
12228;SDS011;6177;52.402;9.800;2024-01-11T00:12:44;23.97;;;18.93;;
12228;SDS011;6177;52.402;9.800;2024-01-11T00:15:09;27.43;;;20.47;;
12228;SDS011;6177;52.402;9.800;2024-01-11T00:17:35;29.30;;;21.60;;
12228;SDS011;6177;52.402;9.800;2024-01-11T00:20:01;27.87;;;21.27;;
12228;SDS011;6177;52.402;9.800;2024-01-11T00:22:27;27.80;;;21.20;;
12228;SDS011;6177;52.402;9.800;2024-01-11T00:24:52;26.77;;;20.27;;
12228;SDS011;6177;52.402;9.800;2024-01-11T00:27:18;25.40;;;18.80;;
12228;SDS011;6177;52.402;9.800;2024-01-11T00:29:44;26.30;;;19.80;;
12228;SDS011;6177;52.402;9.800;2024-01-11T00:32:10;26.63;;;19.50;;
12228;SDS011;6177;52.402;9.800;2024-01-11T00:34:35;29.30;;;21.03;;
12228;SDS011;6177;52.402;9.800;2024-01-11T00:37:01;29.13;;;20.90;;
12228;SDS011;6177;52.402;9.800;2024-01-11T00:39:27;25.23;;;19.70;;
12228;SDS011;6177;52.402;9.800;2024-01-11T00:41:52;25.80;;;20.17;;
12228;SDS011;6177;52.402;9.800;2024-01-11T00:44:18;25.07;;;17.77;;
12228;SDS011;6177;52.402;9.800;2024-01-11T00:46:43;24.33;;;18.10;;
12228;SDS011;6177;52.402;9.800;2024-01-11T00:49:09;26.87;;;20.40;;
12228;SDS011;6177;52.402;9.800;2024-01-11T00:51:35;26.00;;;19.57;;
12228;SDS011;6177;52.402;9.800;2024-01-11T00:54:01;22.97;;;19.80;;
12228;SDS011;6177;52.402;9.800;2024-01-11T00:56:26;27.93;;;19.37;;
12228;SDS011;6177;52.402;9.800;2024-01-11T00:58:52;22.50;;;18.13;;
12228;SDS011;6177;52.402;9.800;2024-01-11T01:01:18;26.23;;;18.83;;
12228;SDS011;6177;52.402;9.800;2024-01-11T01:03:44;23.80;;;17.30;;
12228;SDS011;6177;52.402;9.800;2024-01-11T01:06:09;24.73;;;17.43;;
12228;SDS011;6177;52.402;9.800;2024-01-11T01:08:35;22.17;;;17.33;;
12228;SDS011;6177;52.402;9.800;2024-01-11T01:11:00;25.70;;;17.57;;
12228;SDS011;6177;52.402;9.800;2024-01-11T01:13:26;21.73;;;16.97;;
12228;SDS011;6177;52.402;9.800;2024-01-11T01:15:52;26.33;;;18.77;;
12228;SDS011;6177;52.402;9.800;2024-01-11T01:18:18;25.90;;;18.03;;
12228;SDS011;6177;52.402;9.800;2024-01-11T01:20:44;21.57;;;17.87;;
12228;SDS011;6177;52.402;9.800;2024-01-11T01:23:09;24.07;;;17.90;;
12228;SDS011;6177;52.402;9.800;2024-01-11T01:25:35;24.00;;;17.60;;
12228;SDS011;6177;52.402;9.800;2024-01-11T01:28:00;26.20;;;18.17;;
12228;SDS011;6177;52.402;9.800;2024-01-11T01:30:28;25.30;;;17.37;;
12228;SDS011;6177;52.402;9.800;2024-01-11T01:32:53;22.20;;;16.50;;
12228;SDS011;6177;52.402;9.800;2024-01-11T01:35:19;21.83;;;18.03;;
12228;SDS011;6177;52.402;9.800;2024-01-11T01:37:47;25.63;;;17.93;;
12228;SDS011;6177;52.402;9.800;2024-01-11T01:40:13;24.53;;;17.73;;
12228;SDS011;6177;52.402;9.800;2024-01-11T01:42:45;26.77;;;18.43;;
12228;SDS011;6177;52.402;9.800;2024-01-11T01:45:11;25.53;;;17.47;;
12228;SDS011;6177;52.402;9.800;2024-01-11T01:47:40;24.60;;;17.43;;
12228;SDS011;6177;52.402;9.800;2024-01-11T01:50:07;22.63;;;17.10;;
12228;SDS011;6177;52.402;9.800;2024-01-11T01:52:35;22.57;;;17.00;;
12228;SDS011;6177;52.402;9.800;2024-01-11T01:55:01;23.03;;;16.97;;
12228;SDS011;6177;52.402;9.800;2024-01-11T01:57:27;24.97;;;18.00;;
12228;SDS011;6177;52.402;9.800;2024-01-11T01:59:53;21.43;;;16.73;;
12228;SDS011;6177;52.402;9.800;2024-01-11T02:02:19;21.63;;;16.67;;
12228;SDS011;6177;52.402;9.800;2024-01-11T02:04:46;22.30;;;16.07;;
12228;SDS011;6177;52.402;9.800;2024-01-11T02:07:12;20.97;;;16.53;;
12228;SDS011;6177;52.402;9.800;2024-01-11T02:09:42;23.67;;;17.17;;
12228;SDS011;6177;52.402;9.800;2024-01-11T02:12:08;23.03;;;16.10;;
12228;SDS011;6177;52.402;9.800;2024-01-11T02:14:39;24.43;;;16.63;;
12228;SDS011;6177;52.402;9.800;2024-01-11T02:17:05;24.97;;;17.67;;
12228;SDS011;6177;52.402;9.800;2024-01-11T02:19:31;20.93;;;16.87;;
12228;SDS011;6177;52.402;9.800;2024-01-11T02:22:00;24.50;;;17.07;;
12228;SDS011;6177;52.402;9.800;2024-01-11T02:24:36;23.00;;;17.37;;
12228;SDS011;6177;52.402;9.800;2024-01-11T02:27:02;22.23;;;17.13;;
12228;SDS011;6177;52.402;9.800;2024-01-11T02:29:29;22.93;;;16.67;;
12228;SDS011;6177;52.402;9.800;2024-01-11T02:31:55;21.33;;;17.07;;
12228;SDS011;6177;52.402;9.800;2024-01-11T02:34:22;23.97;;;16.93;;
12228;SDS011;6177;52.402;9.800;2024-01-11T02:36:48;21.97;;;16.93;;
12228;SDS011;6177;52.402;9.800;2024-01-11T02:39:13;21.87;;;16.17;;
12228;SDS011;6177;52.402;9.800;2024-01-11T02:41:41;22.83;;;16.30;;
12228;SDS011;6177;52.402;9.800;2024-01-11T02:44:07;23.83;;;16.53;;
12228;SDS011;6177;52.402;9.800;2024-01-11T02:46:33;24.13;;;17.00;;
12228;SDS011;6177;52.402;9.800;2024-01-11T02:48:58;26.73;;;18.60;;
12228;SDS011;6177;52.402;9.800;2024-01-11T02:51:24;22.37;;;16.90;;
12228;SDS011;6177;52.402;9.800;2024-01-11T02:53:49;22.83;;;17.17;;
12228;SDS011;6177;52.402;9.800;2024-01-11T02:56:15;24.90;;;18.43;;
12228;SDS011;6177;52.402;9.800;2024-01-11T02:58:40;22.93;;;16.60;;
12228;SDS011;6177;52.402;9.800;2024-01-11T03:01:06;24.60;;;17.47;;
12228;SDS011;6177;52.402;9.800;2024-01-11T03:03:31;23.50;;;16.97;;
12228;SDS011;6177;52.402;9.800;2024-01-11T03:05:57;24.23;;;17.97;;
12228;SDS011;6177;52.402;9.800;2024-01-11T03:08:22;22.33;;;16.97;;
12228;SDS011;6177;52.402;9.800;2024-01-11T03:10:48;21.97;;;16.20;;
12228;SDS011;6177;52.402;9.800;2024-01-11T03:13:13;25.03;;;18.30;;
12228;SDS011;6177;52.402;9.800;2024-01-11T03:15:39;21.90;;;16.53;;
12228;SDS011;6177;52.402;9.800;2024-01-11T03:18:04;24.37;;;17.73;;
12228;SDS011;6177;52.402;9.800;2024-01-11T03:20:30;24.97;;;17.63;;
12228;SDS011;6177;52.402;9.800;2024-01-11T03:22:55;25.43;;;17.67;;
12228;SDS011;6177;52.402;9.800;2024-01-11T03:25:21;23.40;;;17.43;;
12228;SDS011;6177;52.402;9.800;2024-01-11T03:27:46;24.10;;;17.33;;
12228;SDS011;6177;52.402;9.800;2024-01-11T03:30:12;24.13;;;17.20;;
12228;SDS011;6177;52.402;9.800;2024-01-11T03:32:38;24.30;;;17.70;;
12228;SDS011;6177;52.402;9.800;2024-01-11T03:35:05;22.50;;;17.10;;
12228;SDS011;6177;52.402;9.800;2024-01-11T03:37:32;22.37;;;17.23;;
12228;SDS011;6177;52.402;9.800;2024-01-11T03:39:57;23.30;;;17.33;;
12228;SDS011;6177;52.402;9.800;2024-01-11T03:42:23;22.47;;;16.93;;
12228;SDS011;6177;52.402;9.800;2024-01-11T03:44:49;24.20;;;16.73;;
12228;SDS011;6177;52.402;9.800;2024-01-11T03:47:14;22.97;;;16.73;;
12228;SDS011;6177;52.402;9.800;2024-01-11T03:49:40;25.67;;;17.10;;
12228;SDS011;6177;52.402;9.800;2024-01-11T03:52:06;21.67;;;16.50;;
12228;SDS011;6177;52.402;9.800;2024-01-11T03:54:31;24.47;;;16.77;;
12228;SDS011;6177;52.402;9.800;2024-01-11T03:56:57;23.63;;;16.40;;
12228;SDS011;6177;52.402;9.800;2024-01-11T03:59:22;21.63;;;16.43;;
12228;SDS011;6177;52.402;9.800;2024-01-11T04:01:48;23.07;;;16.10;;
12228;SDS011;6177;52.402;9.800;2024-01-11T04:04:13;22.40;;;16.57;;
12228;SDS011;6177;52.402;9.800;2024-01-11T04:06:39;20.87;;;16.37;;
12228;SDS011;6177;52.402;9.800;2024-01-11T04:09:04;22.13;;;15.90;;
12228;SDS011;6177;52.402;9.800;2024-01-11T04:11:30;23.30;;;17.30;;
12228;SDS011;6177;52.402;9.800;2024-01-11T04:13:55;23.73;;;16.97;;
12228;SDS011;6177;52.402;9.800;2024-01-11T04:16:21;22.03;;;17.07;;
12228;SDS011;6177;52.402;9.800;2024-01-11T04:18:47;22.93;;;16.90;;
12228;SDS011;6177;52.402;9.800;2024-01-11T04:23:53;21.73;;;16.10;;
12228;SDS011;6177;52.402;9.800;2024-01-11T04:26:19;21.90;;;16.27;;
12228;SDS011;6177;52.402;9.800;2024-01-11T04:28:45;21.07;;;16.27;;
12228;SDS011;6177;52.402;9.800;2024-01-11T04:31:11;19.93;;;15.37;;
12228;SDS011;6177;52.402;9.800;2024-01-11T04:33:41;23.53;;;16.13;;
12228;SDS011;6177;52.402;9.800;2024-01-11T04:36:10;23.23;;;15.90;;
12228;SDS011;6177;52.402;9.800;2024-01-11T04:38:36;20.13;;;15.47;;
12228;SDS011;6177;52.402;9.800;2024-01-11T04:41:08;20.47;;;15.07;;
12228;SDS011;6177;52.402;9.800;2024-01-11T04:43:36;24.27;;;16.23;;
12228;SDS011;6177;52.402;9.800;2024-01-11T04:46:14;19.77;;;14.60;;
12228;SDS011;6177;52.402;9.800;2024-01-11T04:48:40;21.17;;;16.03;;
12228;SDS011;6177;52.402;9.800;2024-01-11T04:51:05;19.97;;;15.43;;
12228;SDS011;6177;52.402;9.800;2024-01-11T04:53:31;20.87;;;15.43;;
12228;SDS011;6177;52.402;9.800;2024-01-11T04:55:57;23.50;;;16.43;;
12228;SDS011;6177;52.402;9.800;2024-01-11T04:58:22;20.33;;;15.17;;
12228;SDS011;6177;52.402;9.800;2024-01-11T05:00:49;23.57;;;17.33;;
12228;SDS011;6177;52.402;9.800;2024-01-11T05:03:14;25.37;;;19.73;;
12228;SDS011;6177;52.402;9.800;2024-01-11T05:05:40;26.27;;;18.67;;
12228;SDS011;6177;52.402;9.800;2024-01-11T05:08:06;23.30;;;15.77;;
12228;SDS011;6177;52.402;9.800;2024-01-11T05:10:31;23.37;;;17.03;;
12228;SDS011;6177;52.402;9.800;2024-01-11T05:12:56;22.37;;;16.37;;
12228;SDS011;6177;52.402;9.800;2024-01-11T05:15:22;23.53;;;16.03;;
12228;SDS011;6177;52.402;9.800;2024-01-11T05:17:47;25.47;;;17.20;;
12228;SDS011;6177;52.402;9.800;2024-01-11T05:20:13;24.33;;;16.03;;
12228;SDS011;6177;52.402;9.800;2024-01-11T05:22:39;22.93;;;16.43;;
12228;SDS011;6177;52.402;9.800;2024-01-11T05:25:05;23.27;;;15.70;;
12228;SDS011;6177;52.402;9.800;2024-01-11T05:27:31;24.27;;;16.87;;
12228;SDS011;6177;52.402;9.800;2024-01-11T05:29:56;22.43;;;15.30;;
12228;SDS011;6177;52.402;9.800;2024-01-11T05:32:22;21.43;;;16.83;;
12228;SDS011;6177;52.402;9.800;2024-01-11T05:34:47;26.83;;;16.83;;
12228;SDS011;6177;52.402;9.800;2024-01-11T05:37:13;24.37;;;16.73;;
12228;SDS011;6177;52.402;9.800;2024-01-11T05:39:38;24.27;;;16.30;;
12228;SDS011;6177;52.402;9.800;2024-01-11T05:42:04;27.93;;;17.90;;
12228;SDS011;6177;52.402;9.800;2024-01-11T05:44:30;23.17;;;15.83;;
12228;SDS011;6177;52.402;9.800;2024-01-11T05:46:55;25.80;;;17.60;;
12228;SDS011;6177;52.402;9.800;2024-01-11T05:49:20;23.60;;;16.90;;
12228;SDS011;6177;52.402;9.800;2024-01-11T05:51:47;22.57;;;15.13;;
12228;SDS011;6177;52.402;9.800;2024-01-11T05:54:12;22.53;;;16.63;;
12228;SDS011;6177;52.402;9.800;2024-01-11T05:56:38;23.00;;;15.97;;
12228;SDS011;6177;52.402;9.800;2024-01-11T05:59:03;25.63;;;16.70;;
12228;SDS011;6177;52.402;9.800;2024-01-11T06:01:29;24.67;;;16.73;;
12228;SDS011;6177;52.402;9.800;2024-01-11T06:03:54;23.20;;;16.90;;
12228;SDS011;6177;52.402;9.800;2024-01-11T06:06:20;26.30;;;16.37;;
12228;SDS011;6177;52.402;9.800;2024-01-11T06:08:46;24.37;;;15.77;;
12228;SDS011;6177;52.402;9.800;2024-01-11T06:11:11;23.47;;;16.33;;
12228;SDS011;6177;52.402;9.800;2024-01-11T06:13:39;23.13;;;16.20;;
12228;SDS011;6177;52.402;9.800;2024-01-11T06:16:05;24.67;;;17.30;;
12228;SDS011;6177;52.402;9.800;2024-01-11T06:18:32;23.97;;;16.83;;
12228;SDS011;6177;52.402;9.800;2024-01-11T06:20:57;26.87;;;17.60;;
12228;SDS011;6177;52.402;9.800;2024-01-11T06:23:24;24.37;;;17.30;;
12228;SDS011;6177;52.402;9.800;2024-01-11T06:25:50;31.57;;;18.20;;
12228;SDS011;6177;52.402;9.800;2024-01-11T06:28:15;25.23;;;17.50;;
12228;SDS011;6177;52.402;9.800;2024-01-11T06:30:41;23.27;;;16.70;;
12228;SDS011;6177;52.402;9.800;2024-01-11T06:33:08;27.40;;;17.87;;
12228;SDS011;6177;52.402;9.800;2024-01-11T06:35:34;26.17;;;17.57;;
12228;SDS011;6177;52.402;9.800;2024-01-11T06:37:59;26.63;;;17.30;;
12228;SDS011;6177;52.402;9.800;2024-01-11T06:40:25;25.90;;;17.80;;
12228;SDS011;6177;52.402;9.800;2024-01-11T06:42:51;27.90;;;17.93;;
12228;SDS011;6177;52.402;9.800;2024-01-11T06:45:16;27.70;;;18.50;;
12228;SDS011;6177;52.402;9.800;2024-01-11T06:47:42;27.63;;;18.30;;
12228;SDS011;6177;52.402;9.800;2024-01-11T06:50:11;26.07;;;18.03;;
12228;SDS011;6177;52.402;9.800;2024-01-11T06:52:37;27.63;;;18.73;;
12228;SDS011;6177;52.402;9.800;2024-01-11T06:55:03;30.47;;;18.83;;
12228;SDS011;6177;52.402;9.800;2024-01-11T06:57:29;29.83;;;19.77;;
12228;SDS011;6177;52.402;9.800;2024-01-11T06:59:55;26.90;;;18.07;;
12228;SDS011;6177;52.402;9.800;2024-01-11T07:02:21;28.93;;;19.93;;
12228;SDS011;6177;52.402;9.800;2024-01-11T07:04:46;30.20;;;19.10;;
12228;SDS011;6177;52.402;9.800;2024-01-11T07:07:12;30.00;;;22.75;;
12228;SDS011;6177;52.402;9.800;2024-01-11T07:09:38;28.10;;;19.93;;
12228;SDS011;6177;52.402;9.800;2024-01-11T07:12:04;30.27;;;20.50;;
12228;SDS011;6177;52.402;9.800;2024-01-11T07:14:30;28.27;;;20.63;;
12228;SDS011;6177;52.402;9.800;2024-01-11T07:16:57;29.13;;;20.97;;
12228;SDS011;6177;52.402;9.800;2024-01-11T07:19:22;31.30;;;25.90;;
12228;SDS011;6177;52.402;9.800;2024-01-11T07:21:48;33.80;;;23.20;;
12228;SDS011;6177;52.402;9.800;2024-01-11T07:24:13;35.50;;;21.50;;
12228;SDS011;6177;52.402;9.800;2024-01-11T07:26:39;28.17;;;20.67;;
12228;SDS011;6177;52.402;9.800;2024-01-11T07:29:05;29.00;;;19.33;;
12228;SDS011;6177;52.402;9.800;2024-01-11T07:31:32;26.53;;;19.77;;
12228;SDS011;6177;52.402;9.800;2024-01-11T07:33:57;32.60;;;19.40;;
12228;SDS011;6177;52.402;9.800;2024-01-11T07:36:23;27.60;;;17.87;;
12228;SDS011;6177;52.402;9.800;2024-01-11T07:38:48;29.80;;;19.03;;
12228;SDS011;6177;52.402;9.800;2024-01-11T07:41:14;27.53;;;18.93;;
12228;SDS011;6177;52.402;9.800;2024-01-11T07:43:40;29.77;;;20.90;;
12228;SDS011;6177;52.402;9.800;2024-01-11T07:46:05;28.13;;;19.73;;
12228;SDS011;6177;52.402;9.800;2024-01-11T07:48:32;27.63;;;17.60;;
12228;SDS011;6177;52.402;9.800;2024-01-11T07:50:58;26.02;;;21.02;;
12228;SDS011;6177;52.402;9.800;2024-01-11T07:53:24;27.83;;;19.53;;
12228;SDS011;6177;52.402;9.800;2024-01-11T07:55:51;28.23;;;20.87;;
12228;SDS011;6177;52.402;9.800;2024-01-11T07:58:17;28.07;;;19.10;;
12228;SDS011;6177;52.402;9.800;2024-01-11T08:00:44;26.83;;;17.93;;
12228;SDS011;6177;52.402;9.800;2024-01-11T08:03:10;27.67;;;19.13;;
12228;SDS011;6177;52.402;9.800;2024-01-11T08:05:35;29.40;;;18.63;;
12228;SDS011;6177;52.402;9.800;2024-01-11T08:08:01;30.80;;;20.60;;
12228;SDS011;6177;52.402;9.800;2024-01-11T08:10:28;26.23;;;16.23;;
12228;SDS011;6177;52.402;9.800;2024-01-11T08:12:55;27.50;;;18.40;;
12228;SDS011;6177;52.402;9.800;2024-01-11T08:15:21;30.07;;;20.17;;
12228;SDS011;6177;52.402;9.800;2024-01-11T08:17:47;31.43;;;20.73;;
12228;SDS011;6177;52.402;9.800;2024-01-11T08:20:13;29.67;;;21.07;;
12228;SDS011;6177;52.402;9.800;2024-01-11T08:22:39;29.37;;;21.13;;
12228;SDS011;6177;52.402;9.800;2024-01-11T08:25:05;27.93;;;19.60;;
12228;SDS011;6177;52.402;9.800;2024-01-11T08:27:32;29.83;;;20.20;;
12228;SDS011;6177;52.402;9.800;2024-01-11T08:29:58;28.23;;;20.43;;
12228;SDS011;6177;52.402;9.800;2024-01-11T08:32:25;32.00;;;22.80;;
12228;SDS011;6177;52.402;9.800;2024-01-11T08:34:51;28.13;;;20.30;;
12228;SDS011;6177;52.402;9.800;2024-01-11T08:37:17;27.60;;;19.93;;
12228;SDS011;6177;52.402;9.800;2024-01-11T08:39:42;28.97;;;19.90;;
12228;SDS011;6177;52.402;9.800;2024-01-11T08:42:08;30.20;;;21.17;;
12228;SDS011;6177;52.402;9.800;2024-01-11T08:44:34;30.37;;;20.77;;
12228;SDS011;6177;52.402;9.800;2024-01-11T08:46:59;28.13;;;20.33;;
12228;SDS011;6177;52.402;9.800;2024-01-11T08:49:25;26.73;;;19.90;;
12228;SDS011;6177;52.402;9.800;2024-01-11T08:51:51;26.73;;;19.73;;
12228;SDS011;6177;52.402;9.800;2024-01-11T08:54:17;28.93;;;21.17;;
12228;SDS011;6177;52.402;9.800;2024-01-11T08:56:46;27.63;;;20.83;;
12228;SDS011;6177;52.402;9.800;2024-01-11T08:59:11;27.27;;;20.23;;
12228;SDS011;6177;52.402;9.800;2024-01-11T09:01:37;31.20;;;20.80;;
12228;SDS011;6177;52.402;9.800;2024-01-11T09:04:03;27.53;;;21.30;;
12228;SDS011;6177;52.402;9.800;2024-01-11T09:06:30;27.88;;;20.52;;
12228;SDS011;6177;52.402;9.800;2024-01-11T09:08:56;27.93;;;20.50;;
12228;SDS011;6177;52.402;9.800;2024-01-11T09:11:21;33.43;;;21.80;;
12228;SDS011;6177;52.402;9.800;2024-01-11T09:13:47;29.20;;;21.47;;
12228;SDS011;6177;52.402;9.800;2024-01-11T09:16:15;29.93;;;21.23;;
12228;SDS011;6177;52.402;9.800;2024-01-11T09:18:42;27.87;;;19.73;;
12228;SDS011;6177;52.402;9.800;2024-01-11T09:21:08;27.10;;;20.10;;
12228;SDS011;6177;52.402;9.800;2024-01-11T09:23:34;30.53;;;20.90;;
12228;SDS011;6177;52.402;9.800;2024-01-11T09:26:00;28.73;;;20.93;;
12228;SDS011;6177;52.402;9.800;2024-01-11T09:28:25;33.40;;;20.93;;
12228;SDS011;6177;52.402;9.800;2024-01-11T09:30:52;27.70;;;20.27;;
12228;SDS011;6177;52.402;9.800;2024-01-11T09:33:17;30.03;;;20.87;;
12228;SDS011;6177;52.402;9.800;2024-01-11T09:35:43;29.30;;;22.00;;
12228;SDS011;6177;52.402;9.800;2024-01-11T09:38:08;27.67;;;21.80;;
12228;SDS011;6177;52.402;9.800;2024-01-11T09:40:34;33.53;;;22.73;;
12228;SDS011;6177;52.402;9.800;2024-01-11T09:43:00;32.63;;;21.20;;
12228;SDS011;6177;52.402;9.800;2024-01-11T09:45:29;29.50;;;21.33;;
12228;SDS011;6177;52.402;9.800;2024-01-11T09:47:55;32.20;;;21.20;;
12228;SDS011;6177;52.402;9.800;2024-01-11T09:50:20;32.83;;;23.50;;
12228;SDS011;6177;52.402;9.800;2024-01-11T09:52:47;29.10;;;20.07;;
12228;SDS011;6177;52.402;9.800;2024-01-11T09:55:14;31.77;;;19.47;;
12228;SDS011;6177;52.402;9.800;2024-01-11T09:57:41;35.33;;;22.67;;
12228;SDS011;6177;52.402;9.800;2024-01-11T10:00:10;33.13;;;21.37;;
12228;SDS011;6177;52.402;9.800;2024-01-11T10:02:38;37.45;;;25.70;;
12228;SDS011;6177;52.402;9.800;2024-01-11T10:05:04;31.23;;;22.67;;
12228;SDS011;6177;52.402;9.800;2024-01-11T10:07:30;31.97;;;22.47;;
12228;SDS011;6177;52.402;9.800;2024-01-11T10:09:58;31.40;;;20.90;;
12228;SDS011;6177;52.402;9.800;2024-01-11T10:12:23;36.07;;;21.60;;
12228;SDS011;6177;52.402;9.800;2024-01-11T10:14:53;31.33;;;20.57;;
12228;SDS011;6177;52.402;9.800;2024-01-11T10:17:19;31.90;;;21.17;;
12228;SDS011;6177;52.402;9.800;2024-01-11T10:19:45;28.70;;;18.63;;
12228;SDS011;6177;52.402;9.800;2024-01-11T10:22:11;35.93;;;21.83;;
12228;SDS011;6177;52.402;9.800;2024-01-11T10:24:38;28.53;;;20.20;;
12228;SDS011;6177;52.402;9.800;2024-01-11T10:27:04;30.77;;;21.57;;
12228;SDS011;6177;52.402;9.800;2024-01-11T10:29:34;34.40;;;22.37;;
12228;SDS011;6177;52.402;9.800;2024-01-11T10:32:03;37.57;;;22.40;;
12228;SDS011;6177;52.402;9.800;2024-01-11T10:34:29;41.70;;;24.20;;
12228;SDS011;6177;52.402;9.800;2024-01-11T10:36:54;36.77;;;23.70;;
12228;SDS011;6177;52.402;9.800;2024-01-11T10:39:22;35.73;;;22.57;;
12228;SDS011;6177;52.402;9.800;2024-01-11T10:41:51;39.37;;;21.90;;
12228;SDS011;6177;52.402;9.800;2024-01-11T10:44:21;47.30;;;23.07;;
12228;SDS011;6177;52.402;9.800;2024-01-11T10:46:47;37.63;;;21.57;;
12228;SDS011;6177;52.402;9.800;2024-01-11T10:49:17;49.90;;;23.17;;
12228;SDS011;6177;52.402;9.800;2024-01-11T10:51:45;41.80;;;22.53;;
12228;SDS011;6177;52.402;9.800;2024-01-11T10:54:19;41.37;;;21.90;;
12228;SDS011;6177;52.402;9.800;2024-01-11T10:56:45;39.33;;;21.33;;
12228;SDS011;6177;52.402;9.800;2024-01-11T10:59:11;41.43;;;22.03;;
12228;SDS011;6177;52.402;9.800;2024-01-11T11:01:39;46.83;;;26.87;;
12228;SDS011;6177;52.402;9.800;2024-01-11T11:04:04;39.03;;;21.33;;
12228;SDS011;6177;52.402;9.800;2024-01-11T11:06:31;40.03;;;21.43;;
12228;SDS011;6177;52.402;9.800;2024-01-11T11:08:57;40.13;;;22.13;;
12228;SDS011;6177;52.402;9.800;2024-01-11T11:11:23;37.57;;;21.30;;
12228;SDS011;6177;52.402;9.800;2024-01-11T11:13:50;39.83;;;20.10;;
12228;SDS011;6177;52.402;9.800;2024-01-11T11:16:16;35.20;;;20.10;;
12228;SDS011;6177;52.402;9.800;2024-01-11T11:18:41;35.70;;;19.17;;
12228;SDS011;6177;52.402;9.800;2024-01-11T11:21:10;39.67;;;21.87;;
12228;SDS011;6177;52.402;9.800;2024-01-11T11:23:36;38.43;;;22.10;;
12228;SDS011;6177;52.402;9.800;2024-01-11T11:26:05;37.03;;;21.70;;
12228;SDS011;6177;52.402;9.800;2024-01-11T11:28:32;36.27;;;22.37;;
12228;SDS011;6177;52.402;9.800;2024-01-11T11:30:59;38.37;;;21.10;;
12228;SDS011;6177;52.402;9.800;2024-01-11T11:33:28;33.93;;;21.90;;
12228;SDS011;6177;52.402;9.800;2024-01-11T11:35:55;35.53;;;20.47;;
12228;SDS011;6177;52.402;9.800;2024-01-11T11:38:27;35.33;;;20.20;;
12228;SDS011;6177;52.402;9.800;2024-01-11T11:40:54;28.97;;;18.17;;
12228;SDS011;6177;52.402;9.800;2024-01-11T11:43:21;36.73;;;19.63;;
12228;SDS011;6177;52.402;9.800;2024-01-11T11:45:47;30.73;;;17.77;;
12228;SDS011;6177;52.402;9.800;2024-01-11T11:53:40;26.27;;;15.87;;
12228;SDS011;6177;52.402;9.800;2024-01-11T11:56:06;29.90;;;18.90;;
12228;SDS011;6177;52.402;9.800;2024-01-11T11:58:34;32.63;;;18.97;;
12228;SDS011;6177;52.402;9.800;2024-01-11T12:01:00;24.90;;;15.27;;
12228;SDS011;6177;52.402;9.800;2024-01-11T12:03:29;24.83;;;15.10;;
12228;SDS011;6177;52.402;9.800;2024-01-11T12:05:55;26.40;;;16.03;;
12228;SDS011;6177;52.402;9.800;2024-01-11T12:08:22;23.23;;;15.37;;
12228;SDS011;6177;52.402;9.800;2024-01-11T12:10:47;26.00;;;16.07;;
12228;SDS011;6177;52.402;9.800;2024-01-11T12:13:14;26.33;;;15.17;;
12228;SDS011;6177;52.402;9.800;2024-01-11T12:15:40;27.10;;;16.20;;
12228;SDS011;6177;52.402;9.800;2024-01-11T12:18:05;23.67;;;15.50;;
12228;SDS011;6177;52.402;9.800;2024-01-11T12:20:35;22.00;;;15.50;;
12228;SDS011;6177;52.402;9.800;2024-01-11T12:23:01;25.47;;;14.50;;
12228;SDS011;6177;52.402;9.800;2024-01-11T12:25:27;26.33;;;16.40;;
12228;SDS011;6177;52.402;9.800;2024-01-11T12:27:53;25.13;;;15.40;;
12228;SDS011;6177;52.402;9.800;2024-01-11T12:30:23;22.67;;;15.67;;
12228;SDS011;6177;52.402;9.800;2024-01-11T12:32:50;25.17;;;15.67;;
12228;SDS011;6177;52.402;9.800;2024-01-11T12:35:16;23.30;;;15.20;;
12228;SDS011;6177;52.402;9.800;2024-01-11T12:37:55;20.20;;;14.23;;
12228;SDS011;6177;52.402;9.800;2024-01-11T12:40:23;22.83;;;15.43;;
12228;SDS011;6177;52.402;9.800;2024-01-11T12:42:51;27.37;;;17.00;;
12228;SDS011;6177;52.402;9.800;2024-01-11T12:45:16;26.63;;;17.47;;
12228;SDS011;6177;52.402;9.800;2024-01-11T12:47:42;24.60;;;17.63;;
12228;SDS011;6177;52.402;9.800;2024-01-11T12:50:08;26.20;;;16.53;;
12228;SDS011;6177;52.402;9.800;2024-01-11T12:52:34;27.33;;;17.13;;
12228;SDS011;6177;52.402;9.800;2024-01-11T12:55:00;23.83;;;16.73;;
12228;SDS011;6177;52.402;9.800;2024-01-11T12:57:26;23.77;;;16.73;;
12228;SDS011;6177;52.402;9.800;2024-01-11T12:59:52;26.87;;;17.80;;
12228;SDS011;6177;52.402;9.800;2024-01-11T13:02:18;27.33;;;18.87;;
12228;SDS011;6177;52.402;9.800;2024-01-11T13:04:45;27.57;;;18.63;;
12228;SDS011;6177;52.402;9.800;2024-01-11T13:07:11;28.90;;;18.77;;
12228;SDS011;6177;52.402;9.800;2024-01-11T13:09:38;26.03;;;17.43;;
12228;SDS011;6177;52.402;9.800;2024-01-11T13:12:04;28.97;;;17.70;;
12228;SDS011;6177;52.402;9.800;2024-01-11T13:14:30;28.10;;;18.47;;
12228;SDS011;6177;52.402;9.800;2024-01-11T13:16:57;26.47;;;16.63;;
12228;SDS011;6177;52.402;9.800;2024-01-11T13:19:22;26.50;;;17.83;;
12228;SDS011;6177;52.402;9.800;2024-01-11T13:21:48;28.13;;;18.60;;
12228;SDS011;6177;52.402;9.800;2024-01-11T13:24:13;27.57;;;17.73;;
12228;SDS011;6177;52.402;9.800;2024-01-11T13:26:40;28.60;;;18.43;;
12228;SDS011;6177;52.402;9.800;2024-01-11T13:29:05;28.53;;;18.83;;
12228;SDS011;6177;52.402;9.800;2024-01-11T13:31:32;28.27;;;19.27;;
12228;SDS011;6177;52.402;9.800;2024-01-11T13:33:58;28.43;;;18.17;;
12228;SDS011;6177;52.402;9.800;2024-01-11T13:36:23;27.03;;;18.57;;
12228;SDS011;6177;52.402;9.800;2024-01-11T13:38:49;24.50;;;17.73;;
12228;SDS011;6177;52.402;9.800;2024-01-11T13:41:15;27.93;;;18.00;;
12228;SDS011;6177;52.402;9.800;2024-01-11T13:43:42;28.00;;;18.40;;
12228;SDS011;6177;52.402;9.800;2024-01-11T13:46:08;25.33;;;17.87;;
12228;SDS011;6177;52.402;9.800;2024-01-11T13:48:34;25.63;;;17.13;;
12228;SDS011;6177;52.402;9.800;2024-01-11T13:51:01;30.30;;;18.37;;
12228;SDS011;6177;52.402;9.800;2024-01-11T13:53:28;28.77;;;19.37;;
12228;SDS011;6177;52.402;9.800;2024-01-11T13:56:06;27.90;;;20.53;;
12228;SDS011;6177;52.402;9.800;2024-01-11T13:58:57;29.13;;;19.73;;
12228;SDS011;6177;52.402;9.800;2024-01-11T14:01:22;33.30;;;20.00;;
12228;SDS011;6177;52.402;9.800;2024-01-11T14:03:48;27.83;;;19.40;;
12228;SDS011;6177;52.402;9.800;2024-01-11T14:06:13;29.80;;;18.47;;
12228;SDS011;6177;52.402;9.800;2024-01-11T14:08:39;28.47;;;18.73;;
12228;SDS011;6177;52.402;9.800;2024-01-11T14:11:06;28.30;;;17.80;;
12228;SDS011;6177;52.402;9.800;2024-01-11T14:13:31;26.93;;;18.40;;
12228;SDS011;6177;52.402;9.800;2024-01-11T14:15:59;24.87;;;18.53;;
12228;SDS011;6177;52.402;9.800;2024-01-11T14:18:25;31.70;;;19.03;;
12228;SDS011;6177;52.402;9.800;2024-01-11T14:20:51;31.40;;;18.30;;
12228;SDS011;6177;52.402;9.800;2024-01-11T14:23:16;25.87;;;17.47;;
12228;SDS011;6177;52.402;9.800;2024-01-11T14:25:42;30.67;;;19.83;;
12228;SDS011;6177;52.402;9.800;2024-01-11T14:28:08;29.17;;;19.30;;
12228;SDS011;6177;52.402;9.800;2024-01-11T14:30:33;27.27;;;18.63;;
12228;SDS011;6177;52.402;9.800;2024-01-11T14:32:59;30.70;;;18.67;;
12228;SDS011;6177;52.402;9.800;2024-01-11T14:35:25;32.53;;;19.33;;